Time;durP1;ratioP1;P1;durP2;ratioP2;P2;SDS_P1;SDS_P2;PMS_P1;PMS_P2;Temp;Humidity;BMP_temperature;BMP_pressure;BME280_temperature;BME280_humidity;BME280_pressure;Samples;Min_cycle;Max_cycle;Signal;HPM_P1;HPM_P2
2024/03/13 00:01:03;;;;;;;16.77;9.32;;;7.60;99.90;;;;;;5041815;28;20403;-53
2024/03/13 00:03:29;;;;;;;19.77;8.07;;;7.60;99.90;;;;;;5028391;28;20033;-54
2024/03/13 00:05:55;;;;;;;20.45;8.77;;;7.60;99.90;;;;;;5031781;28;20041;-56
2024/03/13 00:08:22;;;;;;;19.02;9.57;;;7.60;99.90;;;;;;5032366;28;20543;-56
2024/03/13 00:10:49;;;;;;;19.15;8.77;;;7.60;99.90;;;;;;5026208;28;20028;-57
2024/03/13 00:13:15;;;;;;;15.70;8.13;;;7.60;99.90;;;;;;5032693;28;20410;-54
2024/03/13 00:15:42;;;;;;;17.08;7.32;;;7.60;99.90;;;;;;5028641;28;20029;-54
2024/03/13 00:18:08;;;;;;;19.63;8.02;;;7.60;99.90;;;;;;5029509;28;20411;-56
2024/03/13 00:20:33;;;;;;;12.35;6.85;;;7.60;99.90;;;;;;5030256;28;20118;-54
2024/03/13 00:23:01;;;;;;;16.20;8.05;;;7.60;99.90;;;;;;5027917;28;20033;-56
2024/03/13 00:25:27;;;;;;;17.30;8.30;;;7.60;99.90;;;;;;5028608;28;20022;-53
2024/03/13 00:27:52;;;;;;;17.83;7.95;;;7.50;99.90;;;;;;5031584;28;20067;-57
2024/03/13 00:30:18;;;;;;;16.58;7.07;;;7.50;99.90;;;;;;5029067;28;20033;-55
2024/03/13 00:32:44;;;;;;;16.15;7.75;;;7.50;99.90;;;;;;5033544;28;20026;-57
2024/03/13 00:35:12;;;;;;;15.50;8.52;;;7.50;99.90;;;;;;5032099;28;20056;-54
2024/03/13 00:37:38;;;;;;;17.08;7.18;;;7.50;99.90;;;;;;5029358;28;20095;-56
2024/03/13 00:40:04;;;;;;;15.60;7.10;;;7.50;99.90;;;;;;5032828;28;20483;-55
2024/03/13 00:42:29;;;;;;;18.42;8.05;;;7.50;99.90;;;;;;5020904;28;20488;-55
2024/03/13 00:44:55;;;;;;;13.73;6.35;;;7.50;99.90;;;;;;5026941;28;20026;-54
2024/03/13 00:47:22;;;;;;;14.43;6.97;;;7.50;99.90;;;;;;5025641;28;20440;-52
2024/03/13 00:49:48;;;;;;;13.80;7.15;;;7.50;99.90;;;;;;5030332;28;20404;-54
2024/03/13 00:52:14;;;;;;;15.98;7.07;;;7.50;99.90;;;;;;5027168;28;20021;-55
2024/03/13 00:54:46;;;;;;;14.80;5.97;;;7.50;99.90;;;;;;5028104;28;20064;-57
2024/03/13 00:57:12;;;;;;;15.23;6.25;;;7.50;99.90;;;;;;5019446;28;20372;-54
2024/03/13 00:59:39;;;;;;;11.43;5.85;;;7.50;99.90;;;;;;5027104;28;20387;-56
2024/03/13 01:02:08;;;;;;;14.32;6.25;;;7.60;99.90;;;;;;5023290;28;20033;-56
2024/03/13 01:04:35;;;;;;;13.38;5.97;;;7.60;99.90;;;;;;5030627;28;20105;-54
2024/03/13 01:07:01;;;;;;;13.45;5.78;;;7.50;99.90;;;;;;5033947;28;20383;-57
2024/03/13 01:09:26;;;;;;;19.08;6.28;;;7.50;99.90;;;;;;5025095;28;20026;-56
2024/03/13 01:11:52;;;;;;;15.35;6.07;;;7.50;99.90;;;;;;5029505;28;20061;-54
2024/03/13 01:14:21;;;;;;;10.32;5.38;;;7.50;99.90;;;;;;5029161;28;20151;-56
2024/03/13 01:16:51;;;;;;;9.68;5.32;;;7.50;99.90;;;;;;5029648;28;20033;-54
2024/03/13 01:19:19;;;;;;;11.35;5.47;;;7.60;99.90;;;;;;5019395;28;20034;-55
2024/03/13 01:21:54;;;;;;;12.65;5.22;;;7.60;99.90;;;;;;5023275;28;20467;-54
2024/03/13 01:24:20;;;;;;;10.77;5.57;;;7.50;99.90;;;;;;5023975;28;20072;-54
2024/03/13 01:26:47;;;;;;;8.90;4.78;;;7.50;99.90;;;;;;5029469;28;20101;-56
2024/03/13 01:29:13;;;;;;;12.23;5.63;;;7.50;99.90;;;;;;5018991;28;20075;-56
2024/03/13 01:31:40;;;;;;;13.05;5.25;;;7.50;99.90;;;;;;5029321;28;20037;-53
2024/03/13 01:34:05;;;;;;;11.27;5.15;;;7.50;99.90;;;;;;5027140;28;20529;-55
2024/03/13 01:39:20;;;;;;;10.93;5.03;;;7.50;99.90;;;;;;5023923;28;20043;-56
2024/03/13 01:55:44;;;;;;;12.43;4.47;;;7.50;99.90;;;;;;5019184;28;20041;-53
2024/03/13 01:58:19;;;;;;;9.38;4.32;;;7.50;99.90;;;;;;5027249;28;20162;-54
2024/03/13 02:03:31;;;;;;;8.77;4.03;;;7.50;99.90;;;;;;5023123;28;20135;-54
2024/03/13 02:06:00;;;;;;;9.80;4.75;;;7.50;99.90;;;;;;5028230;28;20036;-56
2024/03/13 02:08:28;;;;;;;8.23;4.70;;;7.50;99.90;;;;;;5026951;28;20029;-57
2024/03/13 02:10:57;;;;;;;8.35;4.57;;;7.50;99.90;;;;;;5029187;28;20458;-55
2024/03/13 02:13:24;;;;;;;10.13;4.68;;;7.50;99.90;;;;;;5029581;28;20025;-56
2024/03/13 02:15:50;;;;;;;9.55;4.55;;;7.60;99.90;;;;;;5030341;28;20041;-57
2024/03/13 02:18:28;;;;;;;9.35;4.35;;;7.50;99.90;;;;;;5026122;28;20033;-53
2024/03/13 02:20:53;;;;;;;8.73;3.88;;;7.60;99.90;;;;;;5026434;28;20042;-53
2024/03/13 02:23:22;;;;;;;10.48;4.50;;;7.50;99.90;;;;;;5023316;28;20045;-55
2024/03/13 02:25:51;;;;;;;7.00;3.67;;;7.60;99.90;;;;;;5025152;28;20037;-55
2024/03/13 02:28:17;;;;;;;7.40;3.95;;;7.60;99.90;;;;;;5023089;28;20022;-54
2024/03/13 02:30:43;;;;;;;6.93;2.95;;;7.50;99.90;;;;;;5022691;28;20025;-55
2024/03/13 02:33:11;;;;;;;9.68;3.85;;;7.50;99.90;;;;;;5030073;28;20052;-53
2024/03/13 02:35:37;;;;;;;6.82;4.22;;;7.50;99.90;;;;;;5029157;28;20495;-54
2024/03/13 02:38:03;;;;;;;8.07;3.75;;;7.50;99.90;;;;;;5019103;28;20490;-57
2024/03/13 02:40:28;;;;;;;11.13;4.25;;;7.50;99.90;;;;;;5029478;28;20033;-57
2024/03/13 02:42:54;;;;;;;10.27;4.45;;;7.50;99.90;;;;;;5022692;28;20030;-55
2024/03/13 02:45:19;;;;;;;8.48;4.35;;;7.50;99.90;;;;;;5025895;28;20032;-57
2024/03/13 02:47:45;;;;;;;7.65;3.80;;;7.50;99.90;;;;;;5028914;28;20029;-56
2024/03/13 02:50:14;;;;;;;8.70;4.65;;;7.50;99.90;;;;;;5029435;28;20025;-54
2024/03/13 02:52:40;;;;;;;7.65;3.97;;;7.50;99.90;;;;;;5016600;28;20025;-54
2024/03/13 02:55:07;;;;;;;7.78;4.25;;;7.50;99.90;;;;;;5021749;28;20021;-57
2024/03/13 02:57:33;;;;;;;10.02;4.18;;;7.60;99.90;;;;;;5029829;28;20029;-54
2024/03/13 02:59:59;;;;;;;14.82;4.00;;;7.60;99.90;;;;;;5029638;28;20083;-54
2024/03/13 03:02:25;;;;;;;8.07;4.03;;;7.50;99.90;;;;;;5034054;28;20037;-54
2024/03/13 03:04:51;;;;;;;10.77;5.13;;;7.60;99.90;;;;;;5032219;28;20033;-54
2024/03/13 03:07:17;;;;;;;7.28;4.05;;;7.50;99.90;;;;;;5030616;28;20018;-56
2024/03/13 03:09:42;;;;;;;9.27;4.75;;;7.50;99.90;;;;;;5021923;28;20052;-55
2024/03/13 03:12:12;;;;;;;6.07;3.60;;;7.50;99.90;;;;;;5031383;28;20669;-54
2024/03/13 03:14:41;;;;;;;7.53;4.07;;;7.60;99.90;;;;;;5027056;28;20029;-52
2024/03/13 03:17:07;;;;;;;8.35;4.68;;;7.50;99.90;;;;;;5020106;28;20037;-54
2024/03/13 03:19:36;;;;;;;6.50;3.75;;;7.50;99.90;;;;;;5032762;28;20115;-54
2024/03/13 03:22:03;;;;;;;6.18;3.67;;;7.60;99.90;;;;;;5032426;28;20025;-53
2024/03/13 03:24:30;;;;;;;6.40;3.42;;;7.50;99.90;;;;;;5025365;28;20548;-57
2024/03/13 03:26:59;;;;;;;8.38;3.72;;;7.60;99.90;;;;;;5030577;28;20464;-55
2024/03/13 03:29:26;;;;;;;7.55;3.55;;;7.60;99.90;;;;;;5027137;28;20104;-54
2024/03/13 03:31:52;;;;;;;6.28;3.45;;;7.60;99.90;;;;;;5031638;28;20112;-54
2024/03/13 03:34:18;;;;;;;6.82;3.72;;;7.60;99.90;;;;;;5031081;28;20060;-55
2024/03/13 03:36:43;;;;;;;7.35;3.40;;;7.60;99.90;;;;;;5032589;28;20049;-57
2024/03/13 03:39:10;;;;;;;7.35;3.58;;;7.60;99.90;;;;;;5028619;28;20030;-54
2024/03/13 03:41:39;;;;;;;7.25;3.50;;;7.60;99.90;;;;;;5027333;28;20572;-57
2024/03/13 03:44:05;;;;;;;6.18;3.78;;;7.60;99.90;;;;;;5032127;28;20034;-57
2024/03/13 03:46:31;;;;;;;7.55;3.17;;;7.60;99.90;;;;;;5025163;28;20360;-54
2024/03/13 03:48:58;;;;;;;8.88;3.45;;;7.60;99.90;;;;;;5030484;28;20025;-53
2024/03/13 03:51:24;;;;;;;7.00;3.80;;;7.60;99.90;;;;;;5033129;28;20111;-54
2024/03/13 03:53:50;;;;;;;5.07;3.25;;;7.70;99.90;;;;;;5031622;28;20057;-54
2024/03/13 03:56:16;;;;;;;5.88;3.17;;;7.60;99.90;;;;;;5038095;28;20198;-53
2024/03/13 03:58:42;;;;;;;6.32;3.15;;;7.60;99.90;;;;;;5032506;28;20497;-54
2024/03/13 04:01:08;;;;;;;7.43;3.13;;;7.70;99.90;;;;;;5031476;28;20038;-54
2024/03/13 04:03:36;;;;;;;7.28;3.22;;;7.70;99.90;;;;;;5032520;28;20038;-55
2024/03/13 04:06:03;;;;;;;9.80;3.33;;;7.70;99.90;;;;;;5030546;28;20030;-55
2024/03/13 04:08:29;;;;;;;6.80;2.92;;;7.60;99.90;;;;;;5028629;28;20036;-56
2024/03/13 04:10:54;;;;;;;6.25;3.33;;;7.60;99.90;;;;;;5031124;28;20029;-54
2024/03/13 04:13:22;;;;;;;5.75;2.90;;;7.70;99.90;;;;;;5033948;28;20025;-57
2024/03/13 04:15:50;;;;;;;5.80;3.05;;;7.70;99.90;;;;;;5029748;28;20029;-55
2024/03/13 04:18:17;;;;;;;5.15;2.70;;;7.70;99.90;;;;;;5030093;28;20689;-56
2024/03/13 04:23:16;;;;;;;5.60;2.60;;;7.70;99.90;;;;;;5032783;28;20041;-52
2024/03/13 04:25:44;;;;;;;4.88;2.67;;;7.60;99.90;;;;;;5034854;28;20030;-52
2024/03/13 04:28:11;;;;;;;5.57;2.80;;;7.70;99.90;;;;;;5017061;28;20029;-54
2024/03/13 04:30:40;;;;;;;8.30;3.00;;;7.70;99.90;;;;;;5034729;28;20037;-52
2024/03/13 04:33:06;;;;;;;5.47;2.60;;;7.70;99.90;;;;;;5049319;28;20028;-56
2024/03/13 04:35:31;;;;;;;5.15;2.58;;;7.70;99.90;;;;;;5034432;28;20134;-53
2024/03/13 04:37:57;;;;;;;4.38;2.50;;;7.70;99.90;;;;;;5034227;28;20109;-53
2024/03/13 04:40:22;;;;;;;3.95;2.42;;;7.70;99.90;;;;;;5034202;28;20029;-56
2024/03/13 04:42:49;;;;;;;5.85;2.13;;;7.70;99.90;;;;;;5034051;28;20029;-55
2024/03/13 04:45:15;;;;;;;5.30;3.05;;;7.70;99.90;;;;;;5034078;28;20030;-53
2024/03/13 04:47:41;;;;;;;5.07;2.40;;;7.70;99.90;;;;;;5034471;28;20030;-52
2024/03/13 04:50:08;;;;;;;4.82;2.75;;;7.70;99.90;;;;;;5034056;28;20212;-51
2024/03/13 04:52:34;;;;;;;6.40;2.55;;;7.70;99.90;;;;;;5034079;28;20394;-51
2024/03/13 04:55:00;;;;;;;6.85;2.45;;;7.70;99.90;;;;;;5033941;28;20029;-55
2024/03/13 04:57:26;;;;;;;4.13;2.45;;;7.70;99.90;;;;;;5032950;28;20387;-56
2024/03/13 04:59:51;;;;;;;6.05;2.45;;;7.70;99.90;;;;;;5034017;28;20033;-55
2024/03/13 05:02:17;;;;;;;4.35;2.40;;;7.70;99.90;;;;;;5033755;28;20026;-54
2024/03/13 05:04:42;;;;;;;4.13;1.70;;;7.70;99.90;;;;;;5033836;28;20021;-53
2024/03/13 05:07:10;;;;;;;4.93;2.40;;;7.70;99.90;;;;;;5033786;28;20125;-55
2024/03/13 05:09:37;;;;;;;3.65;2.00;;;7.70;99.90;;;;;;5033779;28;20026;-54
2024/03/13 05:12:05;;;;;;;6.93;2.80;;;7.70;99.90;;;;;;5033591;28;20040;-55
2024/03/13 05:14:31;;;;;;;5.47;2.63;;;7.80;99.90;;;;;;5033677;28;20030;-51
2024/03/13 05:16:57;;;;;;;4.10;2.50;;;7.70;99.90;;;;;;5033367;28;20080;-51
2024/03/13 05:19:22;;;;;;;3.70;1.98;;;7.70;99.90;;;;;;5033552;28;20115;-53
2024/03/13 05:21:48;;;;;;;5.07;2.30;;;7.80;99.90;;;;;;5033332;28;20477;-51
2024/03/13 05:24:14;;;;;;;3.38;2.17;;;7.80;99.90;;;;;;5032786;28;20497;-53
2024/03/13 05:26:40;;;;;;;3.65;1.80;;;7.80;99.90;;;;;;5033364;28;20045;-55
2024/03/13 05:29:08;;;;;;;3.92;2.03;;;7.70;99.90;;;;;;5033485;28;20021;-53
2024/03/13 05:31:33;;;;;;;3.75;2.17;;;7.80;99.90;;;;;;5032949;28;20380;-52
2024/03/13 05:34:00;;;;;;;3.45;2.10;;;7.80;99.90;;;;;;5033162;28;20044;-53
2024/03/13 05:36:25;;;;;;;3.55;2.10;;;7.70;99.90;;;;;;5031676;28;20025;-54
2024/03/13 05:38:53;;;;;;;4.18;2.10;;;7.70;99.90;;;;;;5031325;28;20041;-51
2024/03/13 05:41:19;;;;;;;7.05;2.00;;;7.80;99.90;;;;;;5031820;28;20029;-50
2024/03/13 05:43:45;;;;;;;3.08;2.28;;;7.80;99.90;;;;;;5033428;28;20021;-52
2024/03/13 05:46:11;;;;;;;3.20;2.13;;;7.70;99.90;;;;;;5032727;28;20376;-53
2024/03/13 05:48:37;;;;;;;3.88;2.20;;;7.80;99.90;;;;;;5032894;28;20117;-54
2024/03/13 05:51:03;;;;;;;3.50;1.67;;;7.80;99.90;;;;;;5032995;28;20053;-51
2024/03/13 05:53:29;;;;;;;4.07;2.08;;;7.80;99.90;;;;;;5031237;28;20034;-56
2024/03/13 05:55:54;;;;;;;2.58;1.70;;;7.80;99.90;;;;;;5032646;28;20036;-52
2024/03/13 05:58:20;;;;;;;2.38;1.80;;;7.80;99.90;;;;;;5032763;28;20029;-54
2024/03/13 06:00:46;;;;;;;2.72;1.75;;;7.80;99.90;;;;;;5031479;28;20026;-55
2024/03/13 06:03:12;;;;;;;2.03;1.25;;;7.90;99.90;;;;;;5030955;28;20041;-52
2024/03/13 06:05:38;;;;;;;3.20;1.88;;;7.80;99.90;;;;;;5032439;28;20131;-53
2024/03/13 06:08:04;;;;;;;3.03;1.77;;;7.90;99.90;;;;;;5032391;28;20067;-53
2024/03/13 06:10:30;;;;;;;2.65;1.75;;;7.90;99.90;;;;;;5031912;28;20029;-55
2024/03/13 06:12:55;;;;;;;2.97;1.70;;;7.90;99.90;;;;;;5032137;28;20036;-52
2024/03/13 06:15:21;;;;;;;4.07;2.13;;;7.90;99.90;;;;;;5032170;28;20037;-54
2024/03/13 06:17:47;;;;;;;3.50;1.70;;;7.90;99.90;;;;;;5031974;28;20085;-51
2024/03/13 06:20:17;;;;;;;2.45;1.60;;;8.00;99.90;;;;;;5032279;28;20066;-54
2024/03/13 06:22:43;;;;;;;2.47;1.40;;;8.00;99.90;;;;;;5031728;28;20494;-50
2024/03/13 06:25:09;;;;;;;2.55;1.35;;;8.00;99.90;;;;;;5031921;28;20105;-52
2024/03/13 06:27:35;;;;;;;1.88;1.20;;;8.00;99.90;;;;;;5030161;28;20454;-56
2024/03/13 06:30:02;;;;;;;2.08;1.20;;;8.10;99.90;;;;;;5031954;28;20087;-55
2024/03/13 06:32:28;;;;;;;14.55;2.00;;;8.10;99.90;;;;;;5031501;28;20445;-53
2024/03/13 06:35:02;;;;;;;1.98;1.30;;;8.10;99.90;;;;;;5030038;28;20068;-54
2024/03/13 06:37:28;;;;;;;2.17;1.30;;;8.10;99.90;;;;;;5032492;28;20083;-53
2024/03/13 06:39:54;;;;;;;2.42;1.35;;;8.10;99.90;;;;;;5025664;28;20053;-52
2024/03/13 06:42:20;;;;;;;2.08;1.30;;;8.10;99.90;;;;;;5030830;28;20029;-53
2024/03/13 06:44:47;;;;;;;4.18;2.28;;;8.20;99.90;;;;;;5031621;28;20083;-51
2024/03/13 06:47:12;;;;;;;2.47;1.67;;;8.20;99.90;;;;;;5032392;28;20025;-54
2024/03/13 06:49:39;;;;;;;1.67;1.17;;;8.20;99.90;;;;;;5031468;28;20558;-52
2024/03/13 06:52:09;;;;;;;4.55;1.20;;;8.20;99.90;;;;;;5031436;28;20037;-52
2024/03/13 06:54:36;;;;;;;2.25;1.40;;;8.30;99.90;;;;;;5031534;28;20033;-52
2024/03/13 06:57:01;;;;;;;2.88;1.58;;;8.30;99.90;;;;;;5031694;28;20104;-52
2024/03/13 06:59:27;;;;;;;3.72;1.35;;;8.30;99.90;;;;;;5031735;28;20025;-52
2024/03/13 07:01:55;;;;;;;1.73;1.23;;;8.40;99.90;;;;;;5031759;28;20029;-54
2024/03/13 07:04:22;;;;;;;2.10;1.38;;;8.40;99.90;;;;;;5032133;28;20021;-52
2024/03/13 07:06:48;;;;;;;1.77;1.20;;;8.40;99.90;;;;;;5032015;28;20025;-53
2024/03/13 07:09:14;;;;;;;1.73;1.15;;;8.50;99.90;;;;;;5031812;28;20480;-50
2024/03/13 07:11:40;;;;;;;2.10;1.30;;;8.50;99.90;;;;;;5031850;28;20032;-52
2024/03/13 07:14:11;;;;;;;1.52;1.13;;;8.60;99.90;;;;;;5032239;28;20448;-52
2024/03/13 07:16:37;;;;;;;1.85;1.30;;;8.50;99.90;;;;;;5030466;28;20490;-55
2024/03/13 07:19:07;;;;;;;2.70;1.35;;;8.60;99.90;;;;;;5031351;28;20030;-53
2024/03/13 07:21:34;;;;;;;2.00;1.48;;;8.70;99.90;;;;;;5031443;28;20452;-52
2024/03/13 07:24:00;;;;;;;3.47;0.95;;;8.80;99.90;;;;;;5032219;28;20083;-51
2024/03/13 07:26:26;;;;;;;1.73;0.98;;;8.80;99.90;;;;;;5032132;28;20041;-55
2024/03/13 07:28:51;;;;;;;1.85;1.05;;;8.80;99.90;;;;;;5031275;28;20128;-55
2024/03/13 07:31:17;;;;;;;1.58;1.40;;;8.90;99.90;;;;;;5031281;28;20042;-51
2024/03/13 07:33:42;;;;;;;2.50;1.20;;;9.00;99.90;;;;;;5031691;28;20088;-56
2024/03/13 07:36:08;;;;;;;1.58;1.10;;;9.10;99.90;;;;;;5031771;28;20041;-52
2024/03/13 07:38:34;;;;;;;1.40;0.90;;;9.10;99.90;;;;;;5031361;28;20068;-50
2024/03/13 07:41:01;;;;;;;2.20;0.90;;;9.20;99.90;;;;;;5031549;28;20112;-51
2024/03/13 07:43:27;;;;;;;1.75;1.40;;;9.30;99.90;;;;;;5031676;28;20030;-52
2024/03/13 07:45:54;;;;;;;1.92;1.23;;;9.40;99.90;;;;;;5031655;28;20060;-52
2024/03/13 07:48:19;;;;;;;2.22;1.38;;;9.40;99.90;;;;;;5035140;28;20025;-53
2024/03/13 07:50:45;;;;;;;1.17;0.70;;;9.50;99.90;;;;;;5033267;28;20483;-52
2024/03/13 07:53:10;;;;;;;1.27;0.95;;;9.70;99.90;;;;;;5034860;28;20064;-55
2024/03/13 07:55:36;;;;;;;4.70;3.92;;;9.60;99.90;;;;;;5035037;28;20041;-51
2024/03/13 07:58:03;;;;;;;1.30;1.20;;;9.60;99.90;;;;;;5034551;28;20029;-55
2024/03/13 08:00:28;;;;;;;1.58;1.13;;;9.60;99.90;;;;;;5034903;28;20471;-55
2024/03/13 08:02:55;;;;;;;2.55;0.93;;;9.70;99.90;;;;;;5034499;28;20112;-54
2024/03/13 08:05:22;;;;;;;1.60;1.30;;;9.80;99.90;;;;;;5034595;28;20033;-55
2024/03/13 08:07:47;;;;;;;2.38;1.30;;;9.90;99.90;;;;;;5017241;28;20033;-55
2024/03/13 08:10:18;;;;;;;2.30;1.58;;;10.10;99.90;;;;;;5034654;28;20099;-55
2024/03/13 08:12:47;;;;;;;1.30;0.98;;;10.10;99.90;;;;;;5034655;28;20037;-55
2024/03/13 08:15:13;;;;;;;1.65;1.23;;;10.00;99.90;;;;;;5034666;28;20033;-53
2024/03/13 08:17:39;;;;;;;1.40;1.10;;;9.90;99.90;;;;;;5034438;28;20025;-51
2024/03/13 08:20:06;;;;;;;1.80;1.42;;;9.90;99.90;;;;;;5034451;28;20040;-50
2024/03/13 08:22:32;;;;;;;1.50;1.23;;;10.00;99.90;;;;;;5034355;28;20108;-56
2024/03/13 08:24:58;;;;;;;2.25;1.50;;;10.10;99.90;;;;;;5034428;28;20455;-54
2024/03/13 08:27:24;;;;;;;1.98;1.50;;;10.10;99.90;;;;;;5034376;28;20518;-51
2024/03/13 08:29:49;;;;;;;2.42;1.75;;;10.10;99.90;;;;;;5034376;28;20112;-51
2024/03/13 08:32:15;;;;;;;2.67;1.60;;;10.00;99.90;;;;;;5033875;28;20033;-54
2024/03/13 08:34:43;;;;;;;1.52;1.23;;;10.00;99.90;;;;;;5034226;28;20402;-51
2024/03/13 08:37:10;;;;;;;2.40;1.70;;;10.10;99.90;;;;;;5034121;28;20029;-53
2024/03/13 08:39:36;;;;;;;4.30;2.03;;;10.10;99.90;;;;;;5034737;28;20495;-56
2024/03/13 08:42:02;;;;;;;2.35;1.60;;;10.10;99.90;;;;;;5033786;28;20022;-53
2024/03/13 08:44:29;;;;;;;2.22;1.63;;;10.20;99.90;;;;;;5034127;28;20017;-57
2024/03/13 08:46:55;;;;;;;1.50;1.30;;;10.20;99.90;;;;;;5034354;28;20037;-53
2024/03/13 08:49:21;;;;;;;2.72;1.95;;;10.20;99.90;;;;;;5033903;28;20038;-54
2024/03/13 08:51:47;;;;;;;3.58;1.48;;;10.30;99.90;;;;;;5033659;28;20395;-54
2024/03/13 08:54:12;;;;;;;1.70;1.23;;;10.30;99.90;;;;;;5033771;28;20101;-53
2024/03/13 08:56:39;;;;;;;4.97;2.05;;;10.40;99.90;;;;;;5034012;28;20093;-54
2024/03/13 08:59:05;;;;;;;1.75;1.40;;;10.40;99.90;;;;;;5032927;28;20072;-55
2024/03/13 09:01:48;;;;;;;2.67;2.00;;;10.40;99.90;;;;;;5033558;28;20479;-54
2024/03/13 09:04:14;;;;;;;1.92;1.27;;;10.40;99.90;;;;;;5033787;28;20030;-52
2024/03/13 09:06:39;;;;;;;2.22;1.10;;;10.40;99.90;;;;;;5016285;28;20056;-53
2024/03/13 09:09:06;;;;;;;25.98;14.77;;;10.30;99.90;;;;;;5033348;28;20022;-50
2024/03/13 09:11:32;;;;;;;1.67;1.40;;;10.40;99.90;;;;;;5033035;28;20029;-56
2024/03/13 09:14:04;;;;;;;2.67;2.10;;;10.40;99.90;;;;;;5033301;28;20455;-53
2024/03/13 09:16:33;;;;;;;2.75;2.35;;;10.60;99.90;;;;;;5032990;28;20037;-51
2024/03/13 09:18:59;;;;;;;39.85;11.93;;;10.60;99.90;;;;;;5033080;28;20029;-51
2024/03/13 09:21:26;;;;;;;132.57;61.60;;;10.60;99.90;;;;;;5033072;28;20404;-53
2024/03/13 09:23:52;;;;;;;30.52;16.00;;;10.60;99.90;;;;;;5032983;28;20029;-53
2024/03/13 09:26:18;;;;;;;6.95;4.30;;;10.50;99.90;;;;;;5033543;28;20148;-52
2024/03/13 09:28:47;;;;;;;33.22;15.27;;;10.50;99.90;;;;;;5033510;28;20368;-55
2024/03/13 09:31:13;;;;;;;87.63;29.77;;;10.50;99.90;;;;;;5031383;28;20025;-56
2024/03/13 09:33:39;;;;;;;21.17;5.88;;;10.60;99.90;;;;;;5033286;28;20100;-55
2024/03/13 09:36:12;;;;;;;9.23;2.95;;;10.70;99.90;;;;;;5032897;28;20036;-50
2024/03/13 09:38:38;;;;;;;4.90;2.65;;;10.80;99.90;;;;;;5033201;28;20101;-54
2024/03/13 09:41:06;;;;;;;11.02;2.47;;;11.00;99.90;;;;;;5032622;28;20550;-54
2024/03/13 09:43:32;;;;;;;34.53;6.68;;;11.00;99.90;;;;;;5033113;28;20094;-55
2024/03/13 09:45:59;;;;;;;98.30;24.92;;;11.10;99.90;;;;;;5032717;28;20104;-52
2024/03/13 09:48:25;;;;;;;42.28;13.10;;;11.20;99.90;;;;;;5032537;28;20053;-51
2024/03/13 09:50:53;;;;;;;51.88;16.90;;;11.20;99.90;;;;;;5033116;28;20061;-53
2024/03/13 09:53:21;;;;;;;107.00;39.05;;;11.30;99.90;;;;;;5032858;28;20468;-53
2024/03/13 09:55:47;;;;;;;27.45;12.85;;;11.30;99.90;;;;;;5032708;28;20029;-57
2024/03/13 09:58:13;;;;;;;12.35;7.10;;;11.30;99.90;;;;;;5032669;28;20617;-53
2024/03/13 10:00:40;;;;;;;7.50;4.57;;;11.50;99.90;;;;;;5032567;28;20087;-54
2024/03/13 10:03:21;;;;;;;7.85;5.32;;;11.50;99.90;;;;;;5032620;28;20071;-52
2024/03/13 10:05:49;;;;;;;9.98;6.13;;;11.40;99.90;;;;;;5032853;28;20029;-53
2024/03/13 10:08:18;;;;;;;14.38;8.35;;;11.30;99.90;;;;;;5014983;28;20046;-57
2024/03/13 10:10:45;;;;;;;13.10;6.95;;;11.30;99.90;;;;;;5032396;28;20033;-55
2024/03/13 10:13:11;;;;;;;14.57;6.78;;;11.30;99.90;;;;;;5032487;28;20104;-54
2024/03/13 10:15:37;;;;;;;9.88;5.90;;;11.30;99.90;;;;;;5032188;28;20037;-56
2024/03/13 10:18:18;;;;;;;12.75;8.07;;;11.30;99.90;;;;;;5032416;28;20391;-55
2024/03/13 10:20:56;;;;;;;18.00;7.28;;;11.40;99.90;;;;;;5031996;28;20471;-51
2024/03/13 10:25:57;;;;;;;19.67;10.23;;;11.50;99.90;;;;;;5046867;28;20584;-54
2024/03/13 10:28:23;;;;;;;11.70;6.63;;;11.50;99.90;;;;;;5058019;28;20426;-52
2024/03/13 10:30:59;;;;;;;14.15;6.78;;;11.60;99.90;;;;;;5047867;28;20400;-52
2024/03/13 10:33:25;;;;;;;10.80;6.28;;;11.60;99.90;;;;;;5049296;28;20116;-52
2024/03/13 10:35:51;;;;;;;20.48;10.32;;;11.60;99.90;;;;;;5049517;28;20053;-53
2024/03/13 10:38:17;;;;;;;39.88;17.33;;;11.60;99.90;;;;;;5044914;28;20067;-57
2024/03/13 10:40:43;;;;;;;29.05;11.95;;;11.80;99.90;;;;;;5048883;28;20652;-58
2024/03/13 10:43:11;;;;;;;33.78;13.25;;;11.80;99.90;;;;;;5050849;28;20511;-56
2024/03/13 10:45:42;;;;;;;17.13;8.73;;;11.90;99.90;;;;;;5047644;28;20503;-52
2024/03/13 10:48:11;;;;;;;10.70;6.22;;;12.00;99.90;;;;;;5050359;28;20105;-50
2024/03/13 10:50:37;;;;;;;27.38;12.15;;;12.00;99.90;;;;;;5046417;28;20057;-53
2024/03/13 10:53:05;;;;;;;15.65;7.88;;;12.00;99.90;;;;;;5042509;28;20025;-55
2024/03/13 10:55:31;;;;;;;19.15;9.63;;;12.20;99.90;;;;;;5048805;28;20037;-55
2024/03/13 10:57:57;;;;;;;8.00;5.25;;;12.60;99.90;;;;;;5042984;28;20033;-56
2024/03/13 11:00:23;;;;;;;5.72;4.38;;;12.60;99.90;;;;;;5045565;28;20163;-53
2024/03/13 11:02:52;;;;;;;6.57;3.83;;;12.60;99.90;;;;;;5048191;28;20147;-56
2024/03/13 11:05:17;;;;;;;8.18;4.35;;;12.60;99.90;;;;;;5041697;28;20026;-58
2024/03/13 11:07:47;;;;;;;7.10;4.10;;;12.60;99.90;;;;;;5033147;28;20230;-57
2024/03/13 11:10:15;;;;;;;7.30;3.58;;;12.50;99.90;;;;;;5043720;28;20067;-50
2024/03/13 11:12:45;;;;;;;5.13;3.08;;;12.60;99.90;;;;;;5038960;28;20037;-52
2024/03/13 11:15:20;;;;;;;16.98;8.38;;;12.50;99.90;;;;;;5041849;28;20037;-52
2024/03/13 11:17:56;;;;;;;22.48;10.60;;;12.60;99.90;;;;;;5043577;28;20088;-54
2024/03/13 11:20:25;;;;;;;10.05;5.82;;;12.70;99.90;;;;;;5049393;28;20067;-55
2024/03/13 11:23:03;;;;;;;7.28;3.83;;;12.80;99.90;;;;;;5041387;28;20033;-56
2024/03/13 11:25:29;;;;;;;13.35;6.50;;;12.90;99.90;;;;;;5044798;28;20048;-55
2024/03/13 11:27:59;;;;;;;18.83;8.15;;;12.90;99.90;;;;;;5049536;28;20474;-56
2024/03/13 11:30:25;;;;;;;6.43;4.20;;;12.90;99.90;;;;;;5054256;28;20029;-55
2024/03/13 11:32:53;;;;;;;16.17;7.78;;;12.80;99.90;;;;;;5049566;28;20510;-56
2024/03/13 11:35:20;;;;;;;23.20;9.27;;;12.80;99.90;;;;;;5050056;28;20086;-53
2024/03/13 11:37:47;;;;;;;47.97;18.00;;;12.80;99.90;;;;;;5046431;28;20444;-53
2024/03/13 11:40:14;;;;;;;10.27;5.82;;;12.80;99.90;;;;;;5043473;28;20059;-53
2024/03/13 11:42:43;;;;;;;8.32;3.72;;;12.80;99.90;;;;;;5052350;28;20364;-53
2024/03/13 11:45:19;;;;;;;13.50;6.00;;;12.70;99.90;;;;;;5050855;28;20079;-54
2024/03/13 11:47:46;;;;;;;10.07;5.30;;;12.70;99.90;;;;;;5051700;28;20100;-56
2024/03/13 11:50:11;;;;;;;5.95;3.83;;;12.70;99.90;;;;;;5040591;28;20028;-58
2024/03/13 11:52:37;;;;;;;6.57;3.88;;;12.80;99.90;;;;;;5054891;28;20028;-56
2024/03/13 11:55:30;;;;;;;18.17;8.52;;;12.80;99.90;;;;;;5052428;28;20021;-56
2024/03/13 11:58:03;;;;;;;24.23;9.57;;;12.90;99.90;;;;;;5035998;28;20029;-55
2024/03/13 12:00:32;;;;;;;17.30;8.23;;;12.90;99.90;;;;;;5048322;28;20438;-56
2024/03/13 12:02:58;;;;;;;30.77;12.73;;;13.00;99.90;;;;;;5044217;28;20048;-57
2024/03/13 12:05:31;;;;;;;18.00;8.32;;;13.00;99.90;;;;;;5047189;28;20033;-58
2024/03/13 12:07:59;;;;;;;;;;;13.00;99.90;;;;;;5037844;28;20037;-57
2024/03/13 12:10:27;;;;;;;6.15;3.80;;;12.90;99.90;;;;;;5050229;28;19943;-55
2024/03/13 12:12:53;;;;;;;15.07;7.65;;;12.80;99.90;;;;;;5048934;28;20051;-57
2024/03/13 12:15:20;;;;;;;15.80;7.68;;;12.70;99.90;;;;;;5049252;28;20036;-56
2024/03/13 12:17:47;;;;;;;6.13;4.30;;;12.70;99.90;;;;;;5039438;28;20029;-55
2024/03/13 12:20:15;;;;;;;5.75;3.50;;;12.70;99.90;;;;;;5051300;28;20030;-57
2024/03/13 12:22:44;;;;;;;5.03;3.65;;;12.70;99.90;;;;;;5048680;28;20052;-53
2024/03/13 12:25:13;;;;;;;13.98;7.70;;;12.80;99.90;;;;;;5050966;28;20040;-54
2024/03/13 12:27:51;;;;;;;10.15;5.38;;;12.90;99.90;;;;;;5052537;28;20028;-57
2024/03/13 12:30:21;;;;;;;8.75;5.32;;;13.00;99.90;;;;;;5046921;28;20422;-58
2024/03/13 12:32:48;;;;;;;7.22;4.38;;;13.00;99.90;;;;;;5051683;28;20467;-56
2024/03/13 12:35:14;;;;;;;6.72;4.35;;;13.10;99.90;;;;;;5050017;28;20112;-57
2024/03/13 12:37:40;;;;;;;14.80;4.18;;;13.10;99.90;;;;;;5045649;28;20101;-56
2024/03/13 12:40:12;;;;;;;10.18;5.25;;;13.00;99.90;;;;;;5045315;28;20021;-58
2024/03/13 12:42:40;;;;;;;9.63;6.10;;;12.80;99.90;;;;;;5051680;28;20025;-55
2024/03/13 12:45:07;;;;;;;9.15;5.43;;;12.70;99.90;;;;;;5045819;28;20068;-57
2024/03/13 12:47:37;;;;;;;10.50;5.53;;;12.70;99.90;;;;;;5047486;28;20049;-55
2024/03/13 12:50:08;;;;;;;12.13;6.05;;;12.60;99.90;;;;;;5041962;28;20029;-56
2024/03/13 12:52:35;;;;;;;21.40;8.38;;;12.60;99.90;;;;;;5050731;28;20108;-54
2024/03/13 12:55:03;;;;;;;16.85;7.45;;;12.50;99.90;;;;;;5041989;28;20171;-55
2024/03/13 12:57:33;;;;;;;10.55;5.57;;;12.60;99.90;;;;;;5040055;28;20022;-57
2024/03/13 13:00:13;;;;;;;8.82;4.95;;;12.60;99.90;;;;;;5048757;28;20112;-57
2024/03/13 13:02:42;;;;;;;8.30;4.93;;;12.70;99.90;;;;;;5048218;28;20033;-51
2024/03/13 13:05:08;;;;;;;9.15;4.50;;;12.80;99.90;;;;;;5048008;28;20052;-57
2024/03/13 13:07:35;;;;;;;11.30;4.95;;;12.90;99.90;;;;;;5032955;28;20120;-58
2024/03/13 13:10:06;;;;;;;12.73;5.93;;;13.00;99.90;;;;;;5052424;28;20103;-57
2024/03/13 13:12:32;;;;;;;8.75;4.50;;;13.00;99.90;;;;;;5046039;28;20036;-57